Station Historical Data
Daily Summary for February 13, 2017 Units:  Metric    English   Both
« Previous Day
Next Day »
Daily Weekly Monthly Yearly Custom
  High: Low: Average:
Temperature: 12.3 °C 4.7 °C 8.1 °C
Dew Point: 7.9 °C -2.3 °C 3.9 °C
Humidity: 90 % 54 % 75 %
Wind Speed: 14.5 km/h 0 km/h 1 km/h
Wind Gust: 25.7 km/h - -
Wind:- - SSE
Pressure: 1024.3 hPa 1021.2 hPa -
Precipitation: 0 mm    
Historical Graphs
 
 
Tabular Data for February 13, 2017
Time Temperature Dew Point Pressure Wind Wind Speed Wind Gust Humidity Rainfall Rate (Hourly) solar
00:01 5.9 °C 1.3 °C 1023.2 hPa Calm     72 % 0 mm 0.00 W/m2
00:06 5.8 °C 1.9 °C 1022.9 hPa Calm     76 % 0 mm 0.00 W/m2
00:11 5.8 °C 2.1 °C 1023.2 hPa Calm     77 % 0 mm 0.00 W/m2
00:16 5.7 °C 2.1 °C 1023.2 hPa Calm     78 % 0 mm 0.00 W/m2
00:21 5.7 °C 2.3 °C 1023.2 hPa Calm     79 % 0 mm 0.00 W/m2
00:26 5.6 °C 2.6 °C 1023.2 hPa Calm     81 % 0 mm 0.00 W/m2
00:31 5.6 °C 2.6 °C 1022.9 hPa Calm     81 % 0 mm 0.00 W/m2
00:36 5.6 °C 2.6 °C 1022.9 hPa Calm     81 % 0 mm 0.00 W/m2
00:41 5.5 °C 2.7 °C 1022.9 hPa Calm     82 % 0 mm 0.00 W/m2
00:46 5.5 °C 2.7 °C 1022.9 hPa Calm     82 % 0 mm 0.00 W/m2
00:51 5.4 °C 2.6 °C 1022.9 hPa Calm     82 % 0 mm 0.00 W/m2
00:56 5.4 °C 2.4 °C 1022.9 hPa Calm     81 % 0 mm 0.00 W/m2
01:01 5.4 °C 2.4 °C 1022.9 hPa Calm     81 % 0 mm 0.00 W/m2
01:06 5.4 °C 2.2 °C 1022.9 hPa Calm     80 % 0 mm 0.00 W/m2
01:11 5.4 °C 2.2 °C 1022.9 hPa Calm     80 % 0 mm 0.00 W/m2
01:16 5.4 °C 1.3 °C 1022.9 hPa Calm     75 % 0 mm 0.00 W/m2
01:21 5.4 °C 1.3 °C 1022.9 hPa Calm     75 % 0 mm 0.00 W/m2
01:26 5.4 °C 1.1 °C 1022.6 hPa Calm     74 % 0 mm 0.00 W/m2
01:31 5.4 °C 0.7 °C 1022.6 hPa Calm   11.3 km/h 72 % 0 mm 0.00 W/m2
01:36 5.4 °C 0.4 °C 1022.6 hPa Calm   12.9 km/h 70 % 0 mm 0.00 W/m2
01:41 5.4 °C 0.2 °C 1022.6 hPa Calm     69 % 0 mm 0.00 W/m2
01:46 5.4 °C -0.1 °C 1022.6 hPa Calm   11.3 km/h 68 % 0 mm 0.00 W/m2
01:51 5.4 °C -0.2 °C 1022.6 hPa Calm   14.5 km/h 67 % 0 mm 0.00 W/m2
01:56 5.4 °C -1.5 °C 1022.6 hPa ESE 9.7 km/h 19.3 km/h 61 % 0 mm 0.00 W/m2
02:01 5.5 °C -1.9 °C 1022.6 hPa ESE 3.2 km/h 22.5 km/h 59 % 0 mm 0.00 W/m2
02:06 5.7 °C -1.5 °C 1022.6 hPa East 14.5 km/h 19.3 km/h 60 % 0 mm 0.00 W/m2
02:11 5.8 °C -1.8 °C 1022.2 hPa East 3.2 km/h 25.7 km/h 58 % 0 mm 0.00 W/m2
02:16 6 °C -1.6 °C 1022.6 hPa East 8 km/h 22.5 km/h 58 % 0 mm 0.00 W/m2
02:21 6.1 °C -1.8 °C 1022.6 hPa Calm   24.1 km/h 57 % 0 mm 0.00 W/m2
02:26 6.2 °C -2.2 °C 1022.2 hPa ESE 14.5 km/h 20.9 km/h 55 % 0 mm 0.00 W/m2
02:31 6.3 °C -2.1 °C 1022.2 hPa Calm   25.7 km/h 55 % 0 mm 0.00 W/m2
02:36 6.3 °C -2.1 °C 1022.2 hPa ESE 14.5 km/h 14.5 km/h 55 % 0 mm 0.00 W/m2
02:41 6.4 °C -1.7 °C 1022.2 hPa ESE 1.6 km/h 20.9 km/h 56 % 0 mm 0.00 W/m2
02:46 6.4 °C -1.7 °C 1022.2 hPa ESE 8 km/h 20.9 km/h 56 % 0 mm 0.00 W/m2
02:51 6.4 °C -1.7 °C 1022.2 hPa Calm   22.5 km/h 56 % 0 mm 0.00 W/m2
02:56 6.4 °C -1.7 °C 1022.2 hPa Calm   20.9 km/h 56 % 0 mm 0.00 W/m2
03:01 6.4 °C -1.4 °C 1022.2 hPa East 1.6 km/h 1.6 km/h 57 % 0 mm 0.00 W/m2
03:06 6.4 °C -2.2 °C 1022.2 hPa Calm   17.7 km/h 54 % 0 mm 0.00 W/m2
03:11 6.5 °C -2.1 °C 1021.9 hPa SE 11.3 km/h 19.3 km/h 54 % 0 mm 0.00 W/m2
03:16 6.6 °C -1.6 °C 1021.9 hPa Calm   20.9 km/h 56 % 0 mm 0.00 W/m2
03:21 6.6 °C -1.1 °C 1021.9 hPa SE 1.6 km/h 1.6 km/h 58 % 0 mm 0.00 W/m2
03:26 6.5 °C -1.2 °C 1022.2 hPa Calm   1.6 km/h 58 % 0 mm 0.00 W/m2
03:31 6.5 °C -1.4 °C 1021.9 hPa Calm     57 % 0 mm 0.00 W/m2
03:36 6.4 °C -1.7 °C 1021.9 hPa Calm   1.6 km/h 56 % 0 mm 0.00 W/m2
03:41 6.3 °C -1.6 °C 1022.2 hPa Calm   1.6 km/h 57 % 0 mm 0.00 W/m2
03:46 6.2 °C -1.5 °C 1022.2 hPa Calm     58 % 0 mm 0.00 W/m2
03:51 5.9 °C -1.9 °C 1022.2 hPa Calm     57 % 0 mm 0.00 W/m2
03:56 5.7 °C -2.1 °C 1022.2 hPa Calm     57 % 0 mm 0.00 W/m2
04:01 5.5 °C -2.1 °C 1022.2 hPa Calm     58 % 0 mm 0.00 W/m2
04:06 5.4 °C -1.7 °C 1022.2 hPa Calm     60 % 0 mm 0.00 W/m2
04:11 5.3 °C -2.3 °C 1022.2 hPa Calm     58 % 0 mm 0.00 W/m2
04:16 5.3 °C -1.6 °C 1022.2 hPa Calm     61 % 0 mm 0.00 W/m2
04:21 5.2 °C -1.7 °C 1022.2 hPa Calm     61 % 0 mm 0.00 W/m2
04:26 5.2 °C -0.9 °C 1022.2 hPa Calm     65 % 0 mm 0.00 W/m2
04:31 5.1 °C -0.8 °C 1022.2 hPa Calm     66 % 0 mm 0.00 W/m2
04:36 5.1 °C -0.3 °C 1022.2 hPa Calm     68 % 0 mm 0.00 W/m2
04:41 5.1 °C -0.2 °C 1022.2 hPa Calm     69 % 0 mm 0.00 W/m2
04:46 5.1 °C 0.2 °C 1022.2 hPa Calm     71 % 0 mm 0.00 W/m2
04:51 5 °C 0.2 °C 1022.2 hPa Calm     71 % 0 mm 0.00 W/m2
04:56 5 °C 0.6 °C 1022.2 hPa Calm     73 % 0 mm 0.00 W/m2
05:01 5 °C 0.6 °C 1022.2 hPa Calm     73 % 0 mm 0.00 W/m2
05:06 5 °C 0.6 °C 1022.2 hPa Calm     73 % 0 mm 0.00 W/m2
05:11 5 °C 0.6 °C 1022.2 hPa Calm     73 % 0 mm 0.00 W/m2
05:16 5 °C 0.4 °C 1022.2 hPa Calm     72 % 0 mm 0.00 W/m2
05:21 4.9 °C 0.1 °C 1022.2 hPa Calm   1.6 km/h 71 % 0 mm 0.00 W/m2
05:26 4.9 °C -0.3 °C 1022.2 hPa Calm     69 % 0 mm 0.00 W/m2
05:31 4.9 °C -0.3 °C 1022.2 hPa Calm   1.6 km/h 69 % 0 mm 0.00 W/m2
05:36 4.9 °C -0.7 °C 1022.2 hPa Calm     67 % 0 mm 0.00 W/m2
05:41 4.9 °C -0.7 °C 1022.2 hPa Calm     67 % 0 mm 0.00 W/m2
05:46 4.9 °C -0.7 °C 1022.2 hPa Calm     67 % 0 mm 0.00 W/m2
05:51 4.9 °C -0.7 °C 1022.6 hPa Calm     67 % 0 mm 0.00 W/m2
05:56 4.9 °C -0.7 °C 1022.2 hPa Calm   1.6 km/h 67 % 0 mm 0.00 W/m2
06:01 4.9 °C -0.7 °C 1022.2 hPa Calm     67 % 0 mm 0.00 W/m2
06:06 4.9 °C -0.7 °C 1022.2 hPa Calm   1.6 km/h 67 % 0 mm 0.00 W/m2
06:11 4.9 °C -0.7 °C 1022.2 hPa Calm     67 % 0 mm 0.00 W/m2
06:16 4.9 °C -0.9 °C 1022.2 hPa Calm     66 % 0 mm 0.00 W/m2
06:21 4.9 °C -0.9 °C 1022.2 hPa Calm   1.6 km/h 66 % 0 mm 0.00 W/m2
06:26 4.9 °C -0.7 °C 1022.6 hPa Calm     67 % 0 mm 0.00 W/m2
06:31 4.9 °C -0.9 °C 1022.6 hPa Calm     66 % 0 mm 0.00 W/m2
06:36 4.9 °C -0.7 °C 1022.6 hPa Calm     67 % 0 mm 0.00 W/m2
06:41 5 °C -1.1 °C 1022.6 hPa Calm     65 % 0 mm 0.00 W/m2
06:46 5 °C -1.1 °C 1022.6 hPa Calm     65 % 0 mm 0.00 W/m2
06:51 4.9 °C -1.1 °C 1022.6 hPa Calm     65 % 0 mm 0.00 W/m2
06:56 4.9 °C -1.3 °C 1022.6 hPa Calm     64 % 0 mm 0.00 W/m2
07:02 4.9 °C -0.9 °C 1022.9 hPa Calm     66 % 0 mm 7.00 W/m2
07:07 4.9 °C -1.1 °C 1022.9 hPa Calm     65 % 0 mm 9.00 W/m2
07:12 4.8 °C -0.8 °C 1023.2 hPa Calm     67 % 0 mm 12.00 W/m2
07:17 4.8 °C -1.1 °C 1023.2 hPa Calm     66 % 0 mm 16.00 W/m2
07:22 4.7 °C -0.9 °C 1023.2 hPa Calm     67 % 0 mm 21.00 W/m2
07:27 4.7 °C -0.7 °C 1023.2 hPa Calm     68 % 0 mm 26.00 W/m2
07:32 4.7 °C -0.5 °C 1023.6 hPa Calm     69 % 0 mm 30.00 W/m2
07:37 4.7 °C -0.3 °C 1023.6 hPa Calm     70 % 0 mm 35.00 W/m2
07:42 4.7 °C -0.6 °C 1023.6 hPa Calm     69 % 0 mm 40.00 W/m2
07:47 4.7 °C -0.1 °C 1023.6 hPa Calm     71 % 0 mm 46.00 W/m2
07:52 4.7 °C 0.2 °C 1023.6 hPa Calm     73 % 0 mm 53.00 W/m2
07:57 4.7 °C 0.6 °C 1023.6 hPa Calm     75 % 0 mm 63.00 W/m2
08:02 4.7 °C 0.6 °C 1023.6 hPa Calm     75 % 0 mm 77.00 W/m2
08:07 4.7 °C 0.8 °C 1023.6 hPa Calm     76 % 0 mm 111.00 W/m2
08:12 4.7 °C 0.8 °C 1023.9 hPa Calm   1.6 km/h 76 % 0 mm 158.00 W/m2
08:17 4.8 °C 1.1 °C 1023.9 hPa Calm   1.6 km/h 77 % 0 mm 190.00 W/m2
08:22 4.8 °C 1.3 °C 1023.9 hPa Calm   1.6 km/h 78 % 0 mm 223.00 W/m2
08:27 4.8 °C 1.3 °C 1023.9 hPa SE 1.6 km/h 1.6 km/h 78 % 0 mm 246.00 W/m2
08:32 4.9 °C 1.6 °C 1023.9 hPa Calm   3.2 km/h 79 % 0 mm 251.00 W/m2
08:37 5.1 °C 1.9 °C 1023.9 hPa SE 1.6 km/h 1.6 km/h 80 % 0 mm 301.00 W/m2
08:42 5.2 °C 2.2 °C 1023.9 hPa Calm   14.5 km/h 81 % 0 mm 315.00 W/m2
08:47 5.4 °C 2.4 °C 1023.9 hPa ESE 1.6 km/h 14.5 km/h 81 % 0 mm 359.00 W/m2
08:52 5.6 °C 2.6 °C 1023.9 hPa Calm   3.2 km/h 81 % 0 mm 279.00 W/m2
08:57 5.9 °C 2.9 °C 1023.9 hPa ESE 1.6 km/h 3.2 km/h 81 % 0 mm 350.00 W/m2
09:02 6.2 °C 3.2 °C 1023.9 hPa ESE 3.2 km/h 3.2 km/h 81 % 0 mm 225.00 W/m2
09:07 6.4 °C 3.4 °C 1023.9 hPa Calm   6.4 km/h 81 % 0 mm 279.00 W/m2
09:12 6.7 °C 3.5 °C 1023.9 hPa ESE 1.6 km/h 3.2 km/h 80 % 0 mm 385.00 W/m2
09:17 6.9 °C 3.4 °C 1023.9 hPa Calm   1.6 km/h 78 % 0 mm 346.00 W/m2
09:22 7.2 °C 3.2 °C 1023.9 hPa ESE 3.2 km/h 6.4 km/h 76 % 0 mm 369.00 W/m2
09:27 7.4 °C 3.3 °C 1023.9 hPa Calm   3.2 km/h 75 % 0 mm 410.00 W/m2
09:32 7.6 °C 3.2 °C 1023.9 hPa Calm   1.6 km/h 74 % 0 mm 352.00 W/m2
09:37 7.8 °C 3.7 °C 1023.9 hPa Calm   3.2 km/h 75 % 0 mm 359.00 W/m2
09:42 8.1 °C 3.7 °C 1023.9 hPa Calm   1.6 km/h 74 % 0 mm 411.00 W/m2
09:48 8.2 °C 3.4 °C 1023.9 hPa Calm   6.4 km/h 72 % 0 mm 339.00 W/m2
09:53 8.3 °C 3.2 °C 1024.3 hPa Calm     70 % 0 mm 352.00 W/m2
09:58 8.4 °C 3.3 °C 1024.3 hPa Calm     70 % 0 mm 397.00 W/m2
10:03 8.6 °C 3.2 °C 1024.3 hPa ESE 1.6 km/h 1.6 km/h 69 % 0 mm 390.00 W/m2
10:08 8.7 °C 3.2 °C 1024.3 hPa ESE 1.6 km/h 1.6 km/h 68 % 0 mm 327.00 W/m2
10:13 8.8 °C 2.8 °C 1024.3 hPa ESE 1.6 km/h 1.6 km/h 66 % 0 mm 392.00 W/m2
10:18 9 °C 3.2 °C 1024.3 hPa Calm   1.6 km/h 67 % 0 mm 438.00 W/m2
10:23 9.2 °C 3.2 °C 1024.3 hPa Calm   1.6 km/h 66 % 0 mm 427.00 W/m2
10:28 9.3 °C 3.5 °C 1024.3 hPa Calm   1.6 km/h 67 % 0 mm 501.00 W/m2
10:33 9.5 °C 3.1 °C 1024.3 hPa Calm   1.6 km/h 64 % 0 mm 570.00 W/m2
10:38 9.7 °C 3.6 °C 1024.3 hPa ESE 1.6 km/h 6.4 km/h 66 % 0 mm 529.00 W/m2
10:43 9.8 °C 3.8 °C 1024.3 hPa Calm   3.2 km/h 66 % 0 mm 563.00 W/m2
10:48 10 °C 3.9 °C 1024.3 hPa ESE 1.6 km/h 1.6 km/h 66 % 0 mm 533.00 W/m2
10:53 10.2 °C 4.6 °C 1024.3 hPa Calm   1.6 km/h 68 % 0 mm 496.00 W/m2
10:58 10.3 °C 3.8 °C 1024.3 hPa Calm   1.6 km/h 64 % 0 mm 564.00 W/m2
11:03 10.5 °C 4 °C 1023.9 hPa Calm     64 % 0 mm 626.00 W/m2
11:08 10.7 °C 4.4 °C 1024.3 hPa SE 1.6 km/h 3.2 km/h 65 % 0 mm 573.00 W/m2
11:13 10.9 °C 3.7 °C 1023.9 hPa Calm   1.6 km/h 61 % 0 mm 571.00 W/m2
11:18 11.1 °C 4.3 °C 1023.9 hPa Calm   3.2 km/h 63 % 0 mm 559.00 W/m2
11:23 11.2 °C 4.4 °C 1023.9 hPa SE 3.2 km/h 6.4 km/h 63 % 0 mm 547.00 W/m2
11:28 11.3 °C 4.3 °C 1023.9 hPa Calm   1.6 km/h 62 % 0 mm 536.00 W/m2
11:33 11.5 °C 4.9 °C 1023.9 hPa Calm     64 % 0 mm 531.00 W/m2
11:38 11.6 °C 5.3 °C 1023.9 hPa Calm   1.6 km/h 65 % 0 mm 468.00 W/m2
11:43 11.7 °C 5.6 °C 1023.9 hPa SE 1.6 km/h 3.2 km/h 66 % 0 mm 480.00 W/m2
11:48 11.8 °C 5.7 °C 1023.6 hPa SE 3.2 km/h 3.2 km/h 66 % 0 mm 457.00 W/m2
11:53 11.8 °C 5.9 °C 1023.6 hPa Calm   1.6 km/h 67 % 0 mm 510.00 W/m2
11:58 11.9 °C 5.9 °C 1023.6 hPa Calm   1.6 km/h 67 % 0 mm 596.00 W/m2
12:03 11.9 °C 6 °C 1023.6 hPa SSE 3.2 km/h 8 km/h 67 % 0 mm 691.00 W/m2
12:08 12 °C 5.8 °C 1023.6 hPa SSW 3.2 km/h 4.8 km/h 66 % 0 mm 570.00 W/m2
12:13 12.1 °C 6.1 °C 1023.6 hPa SW 4.8 km/h 6.4 km/h 67 % 0 mm 501.00 W/m2
12:18 12.2 °C 6.2 °C 1023.2 hPa WSW 1.6 km/h 1.6 km/h 67 % 0 mm 394.00 W/m2
12:23 12.2 °C 6.3 °C 1023.2 hPa Calm     67 % 0 mm 360.00 W/m2
12:28 12.2 °C 6.7 °C 1023.2 hPa Calm   1.6 km/h 69 % 0 mm 494.00 W/m2
12:33 12.2 °C 6.8 °C 1023.2 hPa Calm   1.6 km/h 70 % 0 mm 671.00 W/m2
12:38 12.1 °C 6.8 °C 1022.9 hPa Calm   1.6 km/h 70 % 0 mm 677.00 W/m2
12:43 12.1 °C 6.9 °C 1022.9 hPa Calm   3.2 km/h 71 % 0 mm 519.00 W/m2
12:48 12.1 °C 6.8 °C 1022.9 hPa West 1.6 km/h 3.2 km/h 70 % 0 mm 348.00 W/m2
12:54 12.1 °C 6.8 °C 1022.9 hPa West 1.6 km/h 1.6 km/h 70 % 0 mm 429.00 W/m2
12:59 12.1 °C 6.8 °C 1022.9 hPa Calm   3.2 km/h 70 % 0 mm 545.00 W/m2
13:04 12.1 °C 7 °C 1022.9 hPa Calm   4.8 km/h 71 % 0 mm 561.00 W/m2
13:09 12.1 °C 7 °C 1022.6 hPa WNW 1.6 km/h 4.8 km/h 71 % 0 mm 608.00 W/m2
13:14 12.1 °C 7 °C 1022.6 hPa NW 1.6 km/h 3.2 km/h 71 % 0 mm 420.00 W/m2
13:19 12.1 °C 6.9 °C 1022.6 hPa Calm   3.2 km/h 71 % 0 mm 452.00 W/m2
13:24 12.1 °C 6.9 °C 1022.6 hPa NW 1.6 km/h 3.2 km/h 71 % 0 mm 480.00 W/m2
13:29 12 °C 6.9 °C 1022.6 hPa NW 1.6 km/h 4.8 km/h 71 % 0 mm 496.00 W/m2
13:34 12 °C 6.9 °C 1022.2 hPa NW 3.2 km/h 4.8 km/h 71 % 0 mm 513.00 W/m2
13:39 11.9 °C 6.8 °C 1022.2 hPa Calm   3.2 km/h 71 % 0 mm 490.00 W/m2
13:44 11.9 °C 6.8 °C 1022.2 hPa Calm   4.8 km/h 71 % 0 mm 512.00 W/m2
13:49 11.9 °C 6.8 °C 1022.2 hPa NW 1.6 km/h 4.8 km/h 71 % 0 mm 522.00 W/m2
13:54 12 °C 7.1 °C 1022.2 hPa WNW 4.8 km/h 6.4 km/h 72 % 0 mm 547.00 W/m2
13:59 12.1 °C 7 °C 1022.2 hPa NW 3.2 km/h 6.4 km/h 71 % 0 mm 510.00 W/m2
14:04 12.2 °C 6.9 °C 1022.2 hPa NW 1.6 km/h 9.7 km/h 70 % 0 mm 485.00 W/m2
14:09 12.3 °C 6.9 °C 1022.2 hPa Calm   6.4 km/h 70 % 0 mm 492.00 W/m2
14:14 12.3 °C 7.2 °C 1021.9 hPa WNW 1.6 km/h 3.2 km/h 71 % 0 mm 452.00 W/m2
14:19 12.3 °C 7.2 °C 1021.9 hPa NW 1.6 km/h 4.8 km/h 71 % 0 mm 448.00 W/m2
14:24 12.3 °C 6.8 °C 1021.9 hPa WNW 4.8 km/h 4.8 km/h 69 % 0 mm 439.00 W/m2
14:29 12.3 °C 6.6 °C 1021.9 hPa WNW 1.6 km/h 6.4 km/h 68 % 0 mm 427.00 W/m2
14:34 12.3 °C 6.6 °C 1021.9 hPa Calm   8 km/h 68 % 0 mm 392.00 W/m2
14:39 12.3 °C 6.6 °C 1021.9 hPa Calm   4.8 km/h 68 % 0 mm 373.00 W/m2
14:44 12.3 °C 6.6 °C 1021.9 hPa Calm   3.2 km/h 68 % 0 mm 390.00 W/m2
14:49 12.3 °C 6.8 °C 1021.9 hPa Calm   4.8 km/h 69 % 0 mm 341.00 W/m2
14:54 12.3 °C 6.9 °C 1021.9 hPa Calm   4.8 km/h 70 % 0 mm 243.00 W/m2
14:59 12.2 °C 7.3 °C 1021.9 hPa Calm   4.8 km/h 72 % 0 mm 274.00 W/m2
15:04 12.2 °C 7.5 °C 1021.9 hPa WSW 1.6 km/h 4.8 km/h 73 % 0 mm 281.00 W/m2
15:09 12.1 °C 7.4 °C 1021.9 hPa WSW 9.7 km/h 12.9 km/h 73 % 0 mm 258.00 W/m2
15:14 12 °C 7.5 °C 1021.9 hPa Calm   3.2 km/h 74 % 0 mm 237.00 W/m2
15:19 11.9 °C 7.6 °C 1021.9 hPa West 1.6 km/h 1.6 km/h 75 % 0 mm 227.00 W/m2
15:24 11.8 °C 7.7 °C 1021.9 hPa West 1.6 km/h 1.6 km/h 76 % 0 mm 218.00 W/m2
15:29 11.7 °C 7.6 °C 1021.9 hPa Calm   1.6 km/h 76 % 0 mm 178.00 W/m2
15:34 11.6 °C 7.7 °C 1021.9 hPa Calm   1.6 km/h 77 % 0 mm 155.00 W/m2
15:40 11.4 °C 7.8 °C 1021.9 hPa Calm   1.6 km/h 78 % 0 mm 134.00 W/m2
15:45 11.3 °C 7.8 °C 1021.9 hPa Calm   1.6 km/h 79 % 0 mm 123.00 W/m2
15:50 11.2 °C 7.8 °C 1021.9 hPa Calm   1.6 km/h 80 % 0 mm 127.00 W/m2
15:55 11.1 °C 7.9 °C 1021.9 hPa Calm     81 % 0 mm 120.00 W/m2
16:00 10.9 °C 7.8 °C 1021.9 hPa Calm     81 % 0 mm 111.00 W/m2
16:05 10.8 °C 7.8 °C 1021.9 hPa Calm     82 % 0 mm 105.00 W/m2
16:10 10.6 °C 7.7 °C 1021.9 hPa Calm     82 % 0 mm 97.00 W/m2
16:15 10.5 °C 7.7 °C 1021.9 hPa Calm     83 % 0 mm 95.00 W/m2
16:20 10.4 °C 7.7 °C 1021.9 hPa Calm     83 % 0 mm 90.00 W/m2
16:25 10.4 °C 7.8 °C 1021.9 hPa Calm     84 % 0 mm 84.00 W/m2
16:30 10.3 °C 7.8 °C 1021.9 hPa Calm     84 % 0 mm 77.00 W/m2
16:35 10.3 °C 7.8 °C 1021.9 hPa Calm     84 % 0 mm 70.00 W/m2
16:40 10.3 °C 7.7 °C 1021.9 hPa Calm     84 % 0 mm 63.00 W/m2
16:45 10.2 °C 7.7 °C 1021.9 hPa Calm     84 % 0 mm 58.00 W/m2
16:50 10.2 °C 7.8 °C 1021.9 hPa Calm     85 % 0 mm 53.00 W/m2
16:55 10.1 °C 7.9 °C 1021.6 hPa Calm     86 % 0 mm 47.00 W/m2
17:00 10.1 °C 7.8 °C 1021.6 hPa Calm     86 % 0 mm 40.00 W/m2
17:05 10 °C 7.8 °C 1021.6 hPa Calm     86 % 0 mm 33.00 W/m2
17:10 9.9 °C 7.9 °C 1021.9 hPa Calm     87 % 0 mm 26.00 W/m2
17:15 9.9 °C 7.8 °C 1021.6 hPa Calm     87 % 0 mm 21.00 W/m2
17:20 9.8 °C 7.7 °C 1021.9 hPa Calm     87 % 0 mm 18.00 W/m2
17:25 9.7 °C 7.7 °C 1021.6 hPa Calm     87 % 0 mm 14.00 W/m2
17:30 9.6 °C 7.7 °C 1021.6 hPa Calm     88 % 0 mm 11.00 W/m2
17:35 9.6 °C 7.7 °C 1021.6 hPa Calm     88 % 0 mm 5.00 W/m2
17:40 9.4 °C 7.6 °C 1021.6 hPa Calm     88 % 0 mm 0.00 W/m2
17:45 9.3 °C 7.4 °C 1021.6 hPa Calm     88 % 0 mm 0.00 W/m2
17:50 9.3 °C 7.4 °C 1021.6 hPa Calm     88 % 0 mm 0.00 W/m2
17:55 9.2 °C 7.3 °C 1021.6 hPa Calm     88 % 0 mm 0.00 W/m2
18:00 9.2 °C 7.3 °C 1021.6 hPa Calm     88 % 0 mm 0.00 W/m2
18:05 9.1 °C 7.4 °C 1021.6 hPa Calm     89 % 0 mm 0.00 W/m2
18:10 9.1 °C 7.3 °C 1021.6 hPa Calm     89 % 0 mm 0.00 W/m2
18:15 9 °C 7.3 °C 1021.6 hPa Calm     89 % 0 mm 0.00 W/m2
18:20 8.9 °C 7.1 °C 1021.6 hPa Calm     88 % 0 mm 0.00 W/m2
18:26 8.9 °C 7 °C 1021.6 hPa Calm     88 % 0 mm 0.00 W/m2
18:31 8.8 °C 7.1 °C 1021.6 hPa East 3.2 km/h 3.2 km/h 89 % 0 mm 0.00 W/m2
18:36 8.8 °C 7.1 °C 1021.6 hPa East 1.6 km/h 6.4 km/h 89 % 0 mm 0.00 W/m2
18:41 8.7 °C 7 °C 1021.6 hPa Calm   3.2 km/h 89 % 0 mm 0.00 W/m2
18:46 8.7 °C 7 °C 1021.6 hPa East 1.6 km/h 6.4 km/h 89 % 0 mm 0.00 W/m2
18:51 8.7 °C 7.2 °C 1021.6 hPa Calm   8 km/h 90 % 0 mm 0.00 W/m2
18:56 8.7 °C 7.2 °C 1021.6 hPa Calm   6.4 km/h 90 % 0 mm 0.00 W/m2
19:01 8.7 °C 7.2 °C 1021.2 hPa ESE 1.6 km/h 6.4 km/h 90 % 0 mm 0.00 W/m2
19:06 8.7 °C 7 °C 1021.2 hPa ESE 1.6 km/h 8 km/h 89 % 0 mm 0.00 W/m2
19:11 8.8 °C 7.1 °C 1021.2 hPa Calm   8 km/h 89 % 0 mm 0.00 W/m2
19:16 8.8 °C 7.1 °C 1021.2 hPa East 1.6 km/h 3.2 km/h 89 % 0 mm 0.00 W/m2
19:21 8.8 °C 7.1 °C 1021.6 hPa East 1.6 km/h 1.6 km/h 89 % 0 mm 0.00 W/m2
19:26 8.8 °C 7.1 °C 1021.6 hPa Calm   3.2 km/h 89 % 0 mm 0.00 W/m2
19:31 8.9 °C 7.2 °C 1021.6 hPa Calm   6.4 km/h 89 % 0 mm 0.00 W/m2
19:36 9 °C 7.3 °C 1021.6 hPa Calm   3.2 km/h 89 % 0 mm 0.00 W/m2
19:41 9.1 °C 7.3 °C 1021.6 hPa East 1.6 km/h 3.2 km/h 89 % 0 mm 0.00 W/m2
19:46 9.1 °C 7.3 °C 1021.6 hPa Calm   1.6 km/h 89 % 0 mm 0.00 W/m2
19:51 9.1 °C 7.2 °C 1021.6 hPa Calm     88 % 0 mm 0.00 W/m2
19:56 9.1 °C 7.2 °C 1021.6 hPa Calm   1.6 km/h 88 % 0 mm 0.00 W/m2
20:01 9 °C 7.3 °C 1021.6 hPa Calm     89 % 0 mm 0.00 W/m2
20:06 8.9 °C 7.1 °C 1021.6 hPa Calm     88 % 0 mm 0.00 W/m2
20:11 8.9 °C 7.1 °C 1021.6 hPa Calm     88 % 0 mm 0.00 W/m2
20:16 8.9 °C 7 °C 1021.6 hPa Calm     88 % 0 mm 0.00 W/m2
20:21 8.8 °C 6.9 °C 1021.6 hPa Calm     88 % 0 mm 0.00 W/m2
20:26 8.8 °C 6.9 °C 1021.6 hPa Calm     88 % 0 mm 0.00 W/m2
20:31 8.7 °C 6.8 °C 1021.9 hPa Calm     88 % 0 mm 0.00 W/m2
20:36 8.7 °C 6.8 °C 1021.9 hPa Calm     88 % 0 mm 0.00 W/m2
20:41 8.6 °C 6.7 °C 1021.9 hPa Calm     88 % 0 mm 0.00 W/m2
20:46 8.6 °C 6.8 °C 1021.9 hPa Calm     89 % 0 mm 0.00 W/m2
20:51 8.5 °C 6.8 °C 1021.9 hPa Calm     89 % 0 mm 0.00 W/m2
20:56 8.4 °C 6.7 °C 1021.9 hPa Calm     89 % 0 mm 0.00 W/m2
21:01 8.4 °C 6.7 °C 1021.9 hPa Calm     89 % 0 mm 0.00 W/m2
21:06 8.3 °C 6.6 °C 1021.9 hPa Calm     89 % 0 mm 0.00 W/m2
21:11 8.3 °C 6.8 °C 1021.9 hPa Calm     90 % 0 mm 0.00 W/m2
21:16 8.3 °C 6.7 °C 1021.9 hPa Calm     90 % 0 mm 0.00 W/m2
21:21 8.3 °C 6.7 °C 1021.9 hPa Calm     90 % 0 mm 0.00 W/m2
21:26 8.3 °C 6.7 °C 1021.9 hPa Calm     90 % 0 mm 0.00 W/m2
21:31 8.3 °C 6.8 °C 1021.9 hPa Calm     90 % 0 mm 0.00 W/m2
21:36 8.3 °C 6.8 °C 1021.9 hPa Calm     90 % 0 mm 0.00 W/m2
21:41 8.3 °C 6.8 °C 1021.9 hPa Calm     90 % 0 mm 0.00 W/m2
21:46 8.3 °C 6.8 °C 1021.9 hPa Calm     90 % 0 mm 0.00 W/m2
21:51 8.3 °C 6.8 °C 1021.9 hPa Calm     90 % 0 mm 0.00 W/m2
21:56 8.3 °C 6.8 °C 1021.9 hPa Calm     90 % 0 mm 0.00 W/m2
22:01 8.3 °C 6.8 °C 1021.9 hPa Calm     90 % 0 mm 0.00 W/m2
22:06 8.3 °C 6.7 °C 1021.9 hPa Calm     90 % 0 mm 0.00 W/m2
22:11 8.2 °C 6.7 °C 1021.9 hPa Calm     90 % 0 mm 0.00 W/m2
22:16 8.2 °C 6.4 °C 1021.9 hPa Calm     89 % 0 mm 0.00 W/m2
22:21 8.1 °C 6.4 °C 1021.6 hPa Calm     89 % 0 mm 0.00 W/m2
22:26 8.1 °C 6.3 °C 1021.6 hPa Calm     89 % 0 mm 0.00 W/m2
22:31 8 °C 6.3 °C 1021.6 hPa East 1.6 km/h 1.6 km/h 89 % 0 mm 0.00 W/m2
22:36 8 °C 6.3 °C 1021.6 hPa East 3.2 km/h 3.2 km/h 89 % 0 mm 0.00 W/m2
22:41 7.9 °C 6.2 °C 1021.6 hPa East 1.6 km/h 6.4 km/h 89 % 0 mm 0.00 W/m2
22:46 7.9 °C 6.2 °C 1021.6 hPa East 1.6 km/h 6.4 km/h 89 % 0 mm 0.00 W/m2
22:51 7.8 °C 6.1 °C 1021.6 hPa ESE 3.2 km/h 6.4 km/h 89 % 0 mm 0.00 W/m2
22:56 7.8 °C 6.1 °C 1021.6 hPa Calm   6.4 km/h 89 % 0 mm 0.00 W/m2
23:01 7.7 °C 5.8 °C 1021.6 hPa Calm   1.6 km/h 88 % 0 mm 0.00 W/m2
23:06 7.7 °C 5.8 °C 1021.6 hPa ESE 8 km/h 8 km/h 88 % 0 mm 0.00 W/m2
23:11 7.7 °C 5.7 °C 1021.6 hPa East 1.6 km/h 9.7 km/h 87 % 0 mm 0.00 W/m2
23:16 7.7 °C 5.5 °C 1021.6 hPa ESE 1.6 km/h 3.2 km/h 86 % 0 mm 0.00 W/m2
23:21 7.7 °C 5.5 °C 1021.6 hPa ESE 1.6 km/h 8 km/h 86 % 0 mm 0.00 W/m2
23:26 7.7 °C 5.3 °C 1021.6 hPa ESE 1.6 km/h 12.9 km/h 85 % 0 mm 0.00 W/m2
23:31 7.6 °C 5.1 °C 1021.6 hPa East 3.2 km/h 6.4 km/h 84 % 0 mm 0.00 W/m2
23:36 7.6 °C 4.8 °C 1021.6 hPa East 8 km/h 9.7 km/h 83 % 0 mm 0.00 W/m2
23:41 7.6 °C 4.5 °C 1021.6 hPa East 8 km/h 9.7 km/h 81 % 0 mm 0.00 W/m2
23:46 7.6 °C 4.5 °C 1021.6 hPa East 1.6 km/h 1.6 km/h 81 % 0 mm 0.00 W/m2
23:51 7.6 °C 4.7 °C 1021.9 hPa ESE 8 km/h 9.7 km/h 82 % 0 mm 0.00 W/m2
23:57 7.5 °C 4.6 °C 1021.9 hPa ESE 1.6 km/h 6.4 km/h 82 % 0 mm 0.00 W/m2
Juneau County Weather
Compliments of Weather Underground - 4.5 mb
 WU-history PHP script courtesy of   Juneau County Weather.
powered by Cumulus v1.9.3 (1059)
Ambient Weather VWS v14.00
Top Contact Website Map Copyright © 2007 - 2018 Foresthillweather.com Never base important decisions on this or any weather information obtained from the Internet